createdAt,value
2023-08-30T00:09:25.880Z,23.20
2023-08-30T00:24:27.381Z,23.20
2023-08-30T00:39:28.882Z,23.10
2023-08-30T00:54:30.397Z,23.10
2023-08-30T01:09:31.892Z,23.00
2023-08-30T01:24:33.390Z,23.00
2023-08-30T01:39:34.999Z,23.00
2023-08-30T01:54:36.539Z,23.00
2023-08-30T02:09:38.085Z,22.90
2023-08-30T02:24:39.589Z,22.90
2023-08-30T02:39:41.086Z,22.90
2023-08-30T02:54:42.602Z,22.90
2023-08-30T03:09:44.125Z,22.80
2023-08-30T03:24:45.615Z,22.80
2023-08-30T03:39:47.109Z,22.70
2023-08-30T03:54:48.600Z,22.70
2023-08-30T04:09:50.114Z,22.70
2023-08-30T04:24:51.624Z,22.70
2023-08-30T04:39:53.206Z,22.70
2023-08-30T04:54:54.698Z,22.60
2023-08-30T05:09:56.220Z,22.50
2023-08-30T05:24:57.786Z,22.50
2023-08-30T05:39:59.285Z,22.50
2023-08-30T05:55:00.800Z,22.60
2023-08-30T06:10:02.341Z,22.60
2023-08-30T06:25:03.849Z,22.70
2023-08-30T06:40:05.344Z,22.70
2023-08-30T06:55:06.861Z,22.80
2023-08-30T07:10:08.413Z,22.50
2023-08-30T07:25:09.899Z,22.80
2023-08-30T07:40:11.657Z,22.80
2023-08-30T07:55:13.252Z,22.80
2023-08-30T08:10:14.761Z,22.80
2023-08-30T08:25:17.432Z,22.80
2023-08-30T08:40:25.974Z,22.90
2023-08-30T08:55:34.305Z,22.90
2023-08-30T09:10:35.794Z,23.00
2023-08-30T09:25:37.292Z,23.00
2023-08-30T09:40:38.796Z,23.10
2023-08-30T09:55:40.295Z,23.10
2023-08-30T10:10:41.791Z,23.20
2023-08-30T10:25:43.305Z,23.10
2023-08-30T10:40:44.802Z,23.20
2023-08-30T10:55:46.301Z,23.20
2023-08-30T11:10:47.854Z,23.20
2023-08-30T11:25:49.347Z,23.30
2023-08-30T11:40:50.832Z,23.60
2023-08-30T11:55:52.346Z,24.30
2023-08-30T12:10:53.936Z,24.10
2023-08-30T12:25:55.448Z,23.90
2023-08-30T12:40:56.941Z,24.30
2023-08-30T12:55:58.438Z,24.80
2023-08-30T13:10:59.929Z,25.00
2023-08-30T13:26:01.710Z,24.70
2023-08-30T13:41:03.475Z,24.70
2023-08-30T13:56:04.968Z,25.00
2023-08-30T14:11:06.605Z,25.00
2023-08-30T14:26:08.123Z,25.10
2023-08-30T14:41:09.672Z,25.20
2023-08-30T14:56:11.182Z,25.20
2023-08-30T15:11:12.709Z,25.20
2023-08-30T15:26:14.367Z,25.10
2023-08-30T15:41:15.856Z,25.00
2023-08-30T15:56:17.358Z,25.00
2023-08-30T16:11:18.930Z,25.00
2023-08-30T16:26:20.420Z,25.00
2023-08-30T16:41:21.927Z,24.90
2023-08-30T16:56:23.420Z,24.70
2023-08-30T17:11:24.925Z,24.70
2023-08-30T17:26:26.421Z,24.70
2023-08-30T17:41:27.986Z,24.70
2023-08-30T17:56:29.477Z,24.60
2023-08-30T18:11:31.023Z,24.50
2023-08-30T18:26:32.528Z,24.40
2023-08-30T18:41:34.143Z,24.30
2023-08-30T18:56:35.655Z,24.20
2023-08-30T19:11:37.213Z,24.10
2023-08-30T19:26:38.770Z,24.00
2023-08-30T19:41:40.337Z,24.00
2023-08-30T19:56:41.834Z,23.90
2023-08-30T20:11:43.364Z,23.80
2023-08-30T20:26:44.857Z,23.80
2023-08-30T20:41:46.376Z,23.70
2023-08-30T20:56:48.040Z,23.60
2023-08-30T21:11:49.625Z,23.60
2023-08-30T21:26:51.187Z,23.60
2023-08-30T21:41:52.856Z,23.50
2023-08-30T21:56:54.344Z,23.50
2023-08-30T22:11:55.837Z,23.50
2023-08-30T22:26:57.337Z,23.40
2023-08-30T22:41:58.828Z,23.40
2023-08-30T22:57:00.311Z,23.30
2023-08-30T23:12:01.807Z,23.30
2023-08-30T23:27:03.316Z,23.20
2023-08-30T23:42:04.825Z,23.20
2023-08-30T23:57:06.341Z,23.20
